createdAt,value
2022-11-03T00:02:11.550Z,85.94
2022-11-03T00:04:38.748Z,86.46
2022-11-03T00:07:05.864Z,86.69
2022-11-03T00:09:32.997Z,86.61
2022-11-03T00:12:00.453Z,87.27
2022-11-03T00:14:28.154Z,86.92
2022-11-03T00:16:55.503Z,87.45
2022-11-03T00:19:22.603Z,87.03
2022-11-03T00:21:50.157Z,87.28
2022-11-03T00:24:17.233Z,87.38
2022-11-03T00:26:44.385Z,87.60
2022-11-03T00:29:14.985Z,87.73
2022-11-03T00:31:44.511Z,87.27
2022-11-03T00:34:12.024Z,88.23
2022-11-03T00:36:41.505Z,87.72
2022-11-03T00:39:09.424Z,88.11
2022-11-03T00:41:37.160Z,88.32
2022-11-03T00:44:04.484Z,88.28
2022-11-03T00:46:35.635Z,88.40
2022-11-03T00:49:04.910Z,88.48
2022-11-03T00:51:32.132Z,88.45
2022-11-03T00:54:01.071Z,88.33
2022-11-03T00:56:34.153Z,88.55
2022-11-03T00:59:02.996Z,89.14
2022-11-03T01:01:42.308Z,89.05
2022-11-03T01:04:30.743Z,88.81
2022-11-03T01:06:59.968Z,89.19
2022-11-03T01:09:30.167Z,88.72
2022-11-03T01:12:03.510Z,89.13
2022-11-03T01:14:48.279Z,88.75
2022-11-03T01:17:18.570Z,88.77
2022-11-03T01:19:46.432Z,88.89
2022-11-03T01:22:14.270Z,88.60
2022-11-03T01:24:42.335Z,88.45
2022-11-03T01:27:11.281Z,88.68
2022-11-03T01:29:38.437Z,88.44
2022-11-03T01:32:05.904Z,88.98
2022-11-03T01:34:33.014Z,88.10
2022-11-03T01:37:00.286Z,88.47
2022-11-03T01:39:27.370Z,88.52
2022-11-03T01:41:54.623Z,87.89
2022-11-03T01:44:37.287Z,88.09
2022-11-03T01:47:25.188Z,88.52
2022-11-03T01:50:08.587Z,88.16
2022-11-03T01:52:43.160Z,88.63
2022-11-03T01:55:19.253Z,88.15
2022-11-03T01:57:56.214Z,88.53
2022-11-03T02:00:23.349Z,88.53
2022-11-03T02:02:51.105Z,88.25
2022-11-03T02:05:20.043Z,87.89
2022-11-03T02:07:59.422Z,87.69
2022-11-03T02:10:26.552Z,87.65
2022-11-03T02:12:53.985Z,88.21
2022-11-03T02:15:22.476Z,88.25
2022-11-03T02:17:52.534Z,88.14
2022-11-03T02:20:24.250Z,87.78
2022-11-03T02:23:28.504Z,87.55
2022-11-03T02:25:59.223Z,87.28
2022-11-03T02:28:29.682Z,87.83
2022-11-03T02:31:18.404Z,87.38
2022-11-03T02:33:58.048Z,87.36
2022-11-03T02:36:35.318Z,87.60
2022-11-03T02:39:19.064Z,88.19
2022-11-03T02:41:48.595Z,87.33
2022-11-03T02:44:18.625Z,87.62
2022-11-03T02:46:49.303Z,88.25
2022-11-03T02:49:16.903Z,87.97
2022-11-03T02:51:43.915Z,87.71
2022-11-03T02:54:20.910Z,87.43
2022-11-03T02:56:56.110Z,87.38
2022-11-03T03:00:09.694Z,87.34
2022-11-03T03:02:46.554Z,87.09
2022-11-03T03:05:16.863Z,87.16
2022-11-03T03:07:46.345Z,86.91
2022-11-03T03:10:20.384Z,87.36
2022-11-03T03:12:51.615Z,87.10
2022-11-03T03:15:22.868Z,87.03
2022-11-03T03:17:54.188Z,87.12
2022-11-03T03:20:27.102Z,87.01
2022-11-03T03:22:59.215Z,87.17
2022-11-03T03:25:35.230Z,86.38
2022-11-03T03:28:19.702Z,86.18
2022-11-03T03:30:49.212Z,86.94
2022-11-03T03:33:18.642Z,86.83
2022-11-03T03:35:49.306Z,85.96
2022-11-03T03:38:23.216Z,86.35
2022-11-03T03:40:53.984Z,86.71
2022-11-03T03:43:24.353Z,86.91
2022-11-03T03:45:52.819Z,86.61
2022-11-03T03:48:20.431Z,86.38
2022-11-03T03:50:50.034Z,87.15
2022-11-03T03:53:19.538Z,87.01
2022-11-03T03:55:49.705Z,87.46
2022-11-03T03:58:17.773Z,87.22
2022-11-03T04:00:45.279Z,87.51
2022-11-03T04:03:18.107Z,87.18
2022-11-03T04:05:45.914Z,86.68
2022-11-03T04:08:14.812Z,86.88
2022-11-03T04:11:01.825Z,87.65
2022-11-03T04:13:47.704Z,87.19
2022-11-03T04:16:33.702Z,86.73
2022-11-03T04:19:19.505Z,87.63
2022-11-03T04:22:05.153Z,87.15
2022-11-03T04:24:32.396Z,87.59
2022-11-03T04:27:05.784Z,87.69
2022-11-03T04:29:32.995Z,87.39
2022-11-03T04:32:00.145Z,87.91
2022-11-03T04:34:27.225Z,87.46
2022-11-03T04:36:54.344Z,87.91
2022-11-03T04:39:21.443Z,87.52
2022-11-03T04:41:48.671Z,87.23
2022-11-03T04:44:17.063Z,87.93
2022-11-03T04:46:46.845Z,87.54
2022-11-03T04:49:22.627Z,88.20
2022-11-03T04:51:50.504Z,87.95
2022-11-03T04:54:21.814Z,88.03
2022-11-03T04:56:49.059Z,88.56
2022-11-03T04:59:17.494Z,88.53
2022-11-03T05:01:46.029Z,89.01
2022-11-03T05:04:16.712Z,88.12
2022-11-03T05:06:53.865Z,88.92
2022-11-03T05:09:26.748Z,88.78
2022-11-03T05:11:54.511Z,88.55
2022-11-03T05:14:24.905Z,89.37
2022-11-03T05:16:54.033Z,89.10
2022-11-03T05:19:25.084Z,89.41
2022-11-03T05:21:54.927Z,89.31
2022-11-03T05:24:26.251Z,88.99
2022-11-03T05:26:56.290Z,88.69
2022-11-03T05:29:25.743Z,88.81
2022-11-03T05:31:54.340Z,89.03
2022-11-03T05:34:30.725Z,89.27
2022-11-03T05:37:25.864Z,89.64
2022-11-03T05:39:57.597Z,89.23
2022-11-03T05:42:32.346Z,89.23
2022-11-03T05:45:02.303Z,88.90
2022-11-03T05:47:39.161Z,88.88
2022-11-03T05:50:35.753Z,88.42
2022-11-03T05:53:25.384Z,88.54
2022-11-03T05:55:52.736Z,88.97
2022-11-03T05:58:27.763Z,88.68
2022-11-03T06:00:55.576Z,88.59
2022-11-03T06:03:31.421Z,88.80
2022-11-03T06:06:00.252Z,89.07
2022-11-03T06:08:33.853Z,89.07
2022-11-03T06:11:03.656Z,89.51
2022-11-03T06:13:35.318Z,89.10
2022-11-03T06:16:26.625Z,89.26
2022-11-03T06:18:53.743Z,89.31
2022-11-03T06:21:24.735Z,89.50
2022-11-03T06:23:53.348Z,89.14
2022-11-03T06:26:27.458Z,89.20
2022-11-03T06:28:55.903Z,89.47
2022-11-03T06:31:31.937Z,89.74
2022-11-03T06:33:59.649Z,89.41
2022-11-03T06:36:30.708Z,89.32
2022-11-03T06:39:03.470Z,89.42
2022-11-03T06:41:36.350Z,89.43
2022-11-03T06:44:30.095Z,89.38
2022-11-03T06:47:01.797Z,89.84
2022-11-03T06:49:31.355Z,89.34
2022-11-03T06:52:02.835Z,89.87
2022-11-03T06:54:29.992Z,89.64
2022-11-03T06:56:57.146Z,88.94
2022-11-03T06:59:25.028Z,88.88
2022-11-03T07:01:55.644Z,89.57
2022-11-03T07:04:28.847Z,89.16
2022-11-03T07:07:00.746Z,89.59
2022-11-03T07:09:28.179Z,89.70
2022-11-03T07:12:01.094Z,89.61
2022-11-03T07:14:31.515Z,89.05
2022-11-03T07:17:02.866Z,89.73
2022-11-03T07:19:34.638Z,88.93
2022-11-03T07:22:05.944Z,89.02
2022-11-03T07:24:41.194Z,88.88
2022-11-03T07:27:11.236Z,88.51
2022-11-03T07:29:38.385Z,88.90
2022-11-03T07:32:21.811Z,88.95
2022-11-03T07:34:50.617Z,88.77
2022-11-03T07:37:21.794Z,88.78
2022-11-03T07:39:51.035Z,88.53
2022-11-03T07:42:21.185Z,87.72
2022-11-03T07:44:50.026Z,88.30
2022-11-03T07:47:26.074Z,88.41
2022-11-03T07:49:55.305Z,87.96
2022-11-03T07:52:26.367Z,88.80
2022-11-03T07:54:57.405Z,88.89
2022-11-03T07:57:31.605Z,89.01
2022-11-03T08:00:08.907Z,88.98
2022-11-03T08:02:43.412Z,88.11
2022-11-03T08:05:10.935Z,87.13
2022-11-03T08:07:38.257Z,86.41
2022-11-03T08:10:07.597Z,85.47
2022-11-03T08:12:34.827Z,84.44
2022-11-03T08:15:01.999Z,84.54
2022-11-03T08:17:29.075Z,84.18
2022-11-03T08:19:56.301Z,83.97
2022-11-03T08:22:26.161Z,83.07
2022-11-03T08:24:53.765Z,83.43
2022-11-03T08:27:21.056Z,81.94
2022-11-03T08:29:48.533Z,81.32
2022-11-03T08:32:15.693Z,80.43
2022-11-03T08:34:42.818Z,80.82
2022-11-03T08:37:09.850Z,80.24
2022-11-03T08:39:37.285Z,80.15
2022-11-03T08:42:04.492Z,80.23
2022-11-03T08:44:31.656Z,80.38
2022-11-03T08:46:58.860Z,79.90
2022-11-03T08:49:26.213Z,79.12
2022-11-03T08:51:53.359Z,80.15
2022-11-03T08:54:20.546Z,79.74
2022-11-03T08:56:49.122Z,79.59
2022-11-03T08:59:18.328Z,78.65
2022-11-03T09:01:45.675Z,78.91
2022-11-03T09:04:12.950Z,77.96
2022-11-03T09:06:41.493Z,78.22
2022-11-03T09:11:55.769Z,78.14
2022-11-03T09:14:22.989Z,78.46
2022-11-03T09:16:50.163Z,78.18
2022-11-03T09:19:17.384Z,78.63
2022-11-03T09:21:44.569Z,78.54
2022-11-03T09:24:11.697Z,78.73
2022-11-03T09:26:38.946Z,77.75
2022-11-03T09:29:06.113Z,76.85
2022-11-03T09:31:33.435Z,76.25
2022-11-03T09:34:00.528Z,76.42
2022-11-03T09:36:27.627Z,77.09
2022-11-03T09:38:54.713Z,77.15
2022-11-03T09:41:27.745Z,77.06
2022-11-03T09:44:03.022Z,76.87
2022-11-03T09:46:30.805Z,76.22
2022-11-03T09:48:59.798Z,76.10
2022-11-03T09:51:28.281Z,75.94
2022-11-03T09:54:02.149Z,76.16
2022-11-03T09:56:30.513Z,76.46
2022-11-03T09:58:57.692Z,75.60
2022-11-03T10:01:25.291Z,76.03
2022-11-03T10:03:52.984Z,75.83
2022-11-03T10:06:21.540Z,75.14
2022-11-03T10:08:49.628Z,75.42
2022-11-03T10:11:16.774Z,74.75
2022-11-03T10:13:50.614Z,74.16
2022-11-03T10:16:21.348Z,73.96
2022-11-03T10:18:49.705Z,74.08
2022-11-03T10:21:26.218Z,73.15
2022-11-03T10:23:53.372Z,74.22
2022-11-03T10:26:21.035Z,73.40
2022-11-03T10:29:05.194Z,72.77
2022-11-03T10:31:33.946Z,72.60
2022-11-03T10:34:01.224Z,72.41
2022-11-03T10:36:31.265Z,72.14
2022-11-03T10:38:59.114Z,72.41
2022-11-03T10:41:30.675Z,72.68
2022-11-03T10:44:04.661Z,72.84
2022-11-03T10:49:21.121Z,72.79
2022-11-03T10:51:51.565Z,71.56
2022-11-03T10:54:21.811Z,70.99
2022-11-03T10:56:49.762Z,71.02
2022-11-03T10:59:22.814Z,71.09
2022-11-03T11:01:50.037Z,71.26
2022-11-03T11:04:19.222Z,70.66
2022-11-03T11:06:47.069Z,69.98
2022-11-03T11:09:20.060Z,70.87
2022-11-03T11:12:01.230Z,71.55
2022-11-03T11:14:28.504Z,71.63
2022-11-03T11:16:57.553Z,70.93
2022-11-03T11:19:26.933Z,71.26
2022-11-03T11:21:53.943Z,71.19
2022-11-03T11:24:45.676Z,71.44
2022-11-03T11:27:45.194Z,71.80
2022-11-03T11:30:21.072Z,70.39
2022-11-03T11:32:56.978Z,70.24
2022-11-03T11:35:24.111Z,70.72
2022-11-03T11:37:51.327Z,71.41
2022-11-03T11:40:24.304Z,70.58
2022-11-03T11:43:06.897Z,70.03
2022-11-03T11:46:11.778Z,70.17
2022-11-03T11:48:38.913Z,69.43
2022-11-03T11:51:11.454Z,69.72
2022-11-03T11:53:41.633Z,68.33
2022-11-03T11:56:18.727Z,68.22
2022-11-03T11:58:49.742Z,68.16
2022-11-03T12:01:34.827Z,68.09
2022-11-03T12:04:31.922Z,69.03
2022-11-03T12:06:59.713Z,69.48
2022-11-03T12:09:28.327Z,69.75
2022-11-03T12:12:05.219Z,69.52
2022-11-03T12:14:37.119Z,68.86
2022-11-03T12:17:19.403Z,68.37
2022-11-03T12:19:54.457Z,68.39
2022-11-03T12:22:24.435Z,68.49
2022-11-03T12:24:58.201Z,67.61
2022-11-03T12:27:25.363Z,66.71
2022-11-03T12:29:54.500Z,66.11
2022-11-03T12:32:37.396Z,64.92
2022-11-03T12:35:06.119Z,63.38
2022-11-03T12:37:33.254Z,63.33
2022-11-03T12:40:00.773Z,62.53
2022-11-03T12:42:27.953Z,62.36
2022-11-03T12:44:55.145Z,62.43
2022-11-03T12:47:22.238Z,63.26
2022-11-03T12:49:49.708Z,62.27
2022-11-03T12:52:16.875Z,61.20
2022-11-03T12:54:43.980Z,61.91
2022-11-03T12:57:11.072Z,60.98
2022-11-03T12:59:38.174Z,61.29
2022-11-03T13:02:05.541Z,62.00
2022-11-03T13:04:32.785Z,62.37
2022-11-03T13:06:59.937Z,61.73
2022-11-03T13:09:27.062Z,61.29
2022-11-03T13:12:12.752Z,61.25
2022-11-03T13:14:43.212Z,60.90
2022-11-03T13:17:13.538Z,60.74
2022-11-03T13:19:40.725Z,60.52
2022-11-03T13:22:07.913Z,60.76
2022-11-03T13:24:34.994Z,60.73
2022-11-03T13:27:02.229Z,60.12
2022-11-03T13:29:34.924Z,60.33
2022-11-03T13:32:04.077Z,60.55
2022-11-03T13:34:31.969Z,61.07
2022-11-03T13:36:59.317Z,61.21
2022-11-03T13:39:26.970Z,61.37
2022-11-03T13:41:54.093Z,60.87
2022-11-03T13:44:21.595Z,60.64
2022-11-03T13:46:48.875Z,61.58
2022-11-03T13:49:59.290Z,61.32
2022-11-03T13:52:03.672Z,62.07
2022-11-03T14:00:07.195Z,61.84
2022-11-03T14:05:28.155Z,61.92
2022-11-03T14:07:55.187Z,62.08
2022-11-03T14:10:22.253Z,62.49
2022-11-03T14:12:49.415Z,62.92
2022-11-03T14:15:16.614Z,63.30
2022-11-03T14:17:43.666Z,63.34
2022-11-03T14:20:13.262Z,63.33
2022-11-03T14:22:41.115Z,64.20
2022-11-03T14:25:08.616Z,64.28
2022-11-03T14:27:35.810Z,65.09
2022-11-03T14:30:04.170Z,64.85
2022-11-03T14:32:31.386Z,66.03
2022-11-03T14:34:58.513Z,66.62
2022-11-03T14:37:25.944Z,66.87
2022-11-03T14:39:53.121Z,67.45
2022-11-03T14:42:20.394Z,68.01
2022-11-03T14:44:48.172Z,68.09
2022-11-03T14:47:21.801Z,67.82
2022-11-03T14:49:49.759Z,68.80
2022-11-03T14:52:18.002Z,68.65
2022-11-03T14:54:45.242Z,69.47
2022-11-03T14:57:12.467Z,69.70
2022-11-03T14:59:39.805Z,69.74
2022-11-03T15:02:07.544Z,69.96
2022-11-03T15:04:34.933Z,70.38
2022-11-03T15:07:02.223Z,70.32
2022-11-03T15:09:29.446Z,70.44
2022-11-03T15:11:56.672Z,70.25
2022-11-03T15:14:23.864Z,70.45
2022-11-03T15:16:51.077Z,70.83
2022-11-03T15:19:18.225Z,70.80
2022-11-03T15:21:45.461Z,71.14
2022-11-03T15:26:59.879Z,71.34
2022-11-03T15:29:27.078Z,71.66
2022-11-03T15:31:54.203Z,71.24
2022-11-03T15:34:21.318Z,71.76
2022-11-03T15:36:48.468Z,71.96
2022-11-03T15:39:16.257Z,71.88
2022-11-03T15:41:43.317Z,72.15
2022-11-03T15:44:10.505Z,71.81
2022-11-03T15:46:37.662Z,72.04
2022-11-03T15:49:04.742Z,72.11
2022-11-03T15:51:32.074Z,72.37
2022-11-03T15:53:59.553Z,72.35
2022-11-03T15:56:27.659Z,72.60
2022-11-03T15:58:55.092Z,72.84
2022-11-03T16:01:22.659Z,72.86
2022-11-03T16:03:50.098Z,72.96
2022-11-03T16:06:17.177Z,73.09
2022-11-03T16:08:44.454Z,73.33
2022-11-03T16:11:11.547Z,73.23
2022-11-03T16:13:39.568Z,73.31
2022-11-03T16:16:07.305Z,73.65
2022-11-03T16:18:35.078Z,73.17
2022-11-03T16:21:02.366Z,73.54
2022-11-03T16:23:29.566Z,73.85
2022-11-03T16:25:56.936Z,73.97
2022-11-03T16:28:24.476Z,74.07
2022-11-03T16:30:54.600Z,74.04
2022-11-03T16:33:21.966Z,74.18
2022-11-03T16:35:49.845Z,74.28
2022-11-03T16:38:17.275Z,74.80
2022-11-03T16:40:44.678Z,74.95
2022-11-03T16:43:12.439Z,74.78
2022-11-03T16:45:39.734Z,75.33
2022-11-03T16:48:07.544Z,75.11
2022-11-03T16:50:35.618Z,75.40
2022-11-03T16:53:03.563Z,75.29
2022-11-03T16:55:30.693Z,75.92
2022-11-03T16:57:58.085Z,75.93
2022-11-03T17:00:25.395Z,75.79
2022-11-03T17:02:52.693Z,76.11
2022-11-03T17:05:21.355Z,75.75
2022-11-03T17:07:53.774Z,75.95
2022-11-03T17:10:22.536Z,75.87
2022-11-03T17:12:50.337Z,75.83
2022-11-03T17:15:17.798Z,76.17
2022-11-03T17:17:45.033Z,76.36
2022-11-03T17:20:12.937Z,76.31
2022-11-03T17:22:40.109Z,76.24
2022-11-03T17:25:12.145Z,75.79
2022-11-03T17:27:47.967Z,75.57
2022-11-03T17:30:23.013Z,75.56
2022-11-03T17:33:13.410Z,75.04
2022-11-03T17:35:42.278Z,75.58
2022-11-03T17:38:15.695Z,75.12
2022-11-03T17:40:45.646Z,75.36
2022-11-03T17:43:23.421Z,74.96
2022-11-03T17:45:50.813Z,74.96
2022-11-03T17:48:18.437Z,74.76
2022-11-03T17:50:48.456Z,75.44
2022-11-03T17:53:24.120Z,75.51
2022-11-03T17:56:23.273Z,75.27
2022-11-03T17:58:45.938Z,75.21
2022-11-03T18:01:19.636Z,75.60
2022-11-03T18:03:46.825Z,75.42
2022-11-03T18:06:19.594Z,75.66
2022-11-03T18:08:48.377Z,75.11
2022-11-03T18:11:42.785Z,75.36
2022-11-03T18:14:09.985Z,75.69
2022-11-03T18:16:37.441Z,75.50
2022-11-03T18:19:04.793Z,75.35
2022-11-03T18:21:32.004Z,75.77
2022-11-03T18:23:59.339Z,75.28
2022-11-03T18:26:27.487Z,75.34
2022-11-03T18:28:54.862Z,75.57
2022-11-03T18:31:33.731Z,75.90
2022-11-03T18:34:05.466Z,75.51
2022-11-03T18:36:36.624Z,76.01
2022-11-03T18:39:04.943Z,75.97
2022-11-03T18:41:41.112Z,75.68
2022-11-03T18:44:25.143Z,75.79
2022-11-03T18:46:52.969Z,75.35
2022-11-03T18:49:20.411Z,75.85
2022-11-03T18:51:59.205Z,75.73
2022-11-03T18:54:30.889Z,75.99
2022-11-03T18:56:58.537Z,75.46
2022-11-03T18:59:31.099Z,76.14
2022-11-03T19:01:58.595Z,76.42
2022-11-03T19:04:25.768Z,76.09
2022-11-03T19:06:53.233Z,76.17
2022-11-03T19:09:24.735Z,76.69
2022-11-03T19:11:54.946Z,76.67
2022-11-03T19:14:34.824Z,76.28
2022-11-03T19:19:54.034Z,76.96
2022-11-03T19:22:23.036Z,76.44
2022-11-03T19:24:50.494Z,76.81
2022-11-03T19:27:23.036Z,76.55
2022-11-03T19:29:50.280Z,77.13
2022-11-03T19:32:25.950Z,76.46
2022-11-03T19:35:08.637Z,76.57
2022-11-03T19:37:36.583Z,76.99
2022-11-03T19:40:09.158Z,76.15
2022-11-03T19:42:39.879Z,76.40
2022-11-03T19:45:08.045Z,76.97
2022-11-03T19:47:44.433Z,76.35
2022-11-03T19:50:28.894Z,76.84
2022-11-03T19:53:03.905Z,76.57
2022-11-03T19:55:34.509Z,76.58
2022-11-03T19:58:17.915Z,77.03
2022-11-03T20:00:46.330Z,76.89
2022-11-03T20:03:14.295Z,77.14
2022-11-03T20:05:46.628Z,77.38
2022-11-03T20:08:19.791Z,77.59
2022-11-03T20:10:48.326Z,77.63
2022-11-03T20:13:18.430Z,77.35
2022-11-03T20:15:45.784Z,77.32
2022-11-03T20:18:13.629Z,77.64
2022-11-03T20:20:42.143Z,78.29
2022-11-03T20:23:25.882Z,77.76
2022-11-03T20:25:54.016Z,78.26
2022-11-03T20:28:25.377Z,78.34
2022-11-03T20:30:53.861Z,78.77
2022-11-03T20:33:22.964Z,78.27
2022-11-03T20:35:52.624Z,78.50
2022-11-03T20:38:21.086Z,78.65
2022-11-03T20:40:51.534Z,78.72
2022-11-03T20:43:29.423Z,78.93
2022-11-03T20:45:57.351Z,79.25
2022-11-03T20:48:25.004Z,78.63
2022-11-03T20:50:53.460Z,79.50
2022-11-03T20:53:23.276Z,78.81
2022-11-03T20:55:51.386Z,79.30
2022-11-03T20:58:18.745Z,79.44
2022-11-03T21:00:47.984Z,79.27
2022-11-03T21:03:38.160Z,79.13
2022-11-03T21:06:12.915Z,79.30
2022-11-03T21:08:40.229Z,79.52
2022-11-03T21:11:25.117Z,79.29
2022-11-03T21:13:54.809Z,79.62
2022-11-03T21:16:41.350Z,80.02
2022-11-03T21:19:37.088Z,79.87
2022-11-03T21:22:51.436Z,79.66
2022-11-03T21:25:04.936Z,79.74
2022-11-03T21:27:32.106Z,80.33
2022-11-03T21:30:00.234Z,79.93
2022-11-03T21:32:27.521Z,79.97
2022-11-03T21:34:54.616Z,79.84
2022-11-03T21:37:21.797Z,80.20
2022-11-03T21:39:48.925Z,80.68
2022-11-03T21:42:35.384Z,81.04
2022-11-03T21:45:02.716Z,80.87
2022-11-03T21:47:30.015Z,80.44
2022-11-03T21:49:57.394Z,80.50
2022-11-03T21:52:33.738Z,80.71
2022-11-03T21:55:02.618Z,80.58
2022-11-03T21:57:30.693Z,81.26
2022-11-03T22:00:01.234Z,80.78
2022-11-03T22:02:30.264Z,81.21
2022-11-03T22:04:58.258Z,80.82
2022-11-03T22:07:25.573Z,80.70
2022-11-03T22:09:52.778Z,80.26
2022-11-03T22:12:19.965Z,81.25
2022-11-03T22:15:06.012Z,80.82
2022-11-03T22:17:33.225Z,80.74
2022-11-03T22:20:18.915Z,80.90
2022-11-03T22:23:04.453Z,80.62
2022-11-03T22:25:50.054Z,80.76
2022-11-03T22:28:17.537Z,81.14
2022-11-03T22:31:03.296Z,81.17
2022-11-03T22:33:30.595Z,80.94
2022-11-03T22:36:21.559Z,80.66
2022-11-03T22:39:07.984Z,80.81
2022-11-03T22:41:54.890Z,81.32
2022-11-03T22:44:40.463Z,81.08
2022-11-03T22:47:08.527Z,81.13
2022-11-03T22:49:36.161Z,81.16
2022-11-03T22:52:03.582Z,80.58
2022-11-03T22:54:30.886Z,80.79
2022-11-03T22:56:58.214Z,81.25
2022-11-03T22:59:25.416Z,81.11
2022-11-03T23:01:52.957Z,80.76
2022-11-03T23:04:20.456Z,80.81
2022-11-03T23:06:47.678Z,80.97
2022-11-03T23:09:14.753Z,81.37
2022-11-03T23:11:41.995Z,81.47
2022-11-03T23:14:11.294Z,81.44
2022-11-03T23:16:42.823Z,81.63
2022-11-03T23:19:33.972Z,81.34
2022-11-03T23:22:01.883Z,81.97
2022-11-03T23:24:47.807Z,81.29
2022-11-03T23:27:14.945Z,81.39
2022-11-03T23:29:42.025Z,81.99
2022-11-03T23:32:09.221Z,81.76
2022-11-03T23:34:36.275Z,81.59
2022-11-03T23:37:03.702Z,81.95
2022-11-03T23:39:30.720Z,81.63
2022-11-03T23:41:57.933Z,81.59
2022-11-03T23:44:25.185Z,81.81
2022-11-03T23:47:10.634Z,82.03
2022-11-03T23:49:37.710Z,81.81
2022-11-03T23:52:04.740Z,81.54
2022-11-03T23:54:31.855Z,81.71
2022-11-03T23:57:17.697Z,82.05
